createdAt,value
2023-03-25T00:05:03.976Z,0.00
2023-03-25T00:10:05.791Z,0.00
2023-03-25T00:15:07.807Z,0.00
2023-03-25T00:20:10.296Z,0.00
2023-03-25T00:25:16.565Z,0.00
2023-03-25T00:30:18.893Z,0.00
2023-03-25T00:35:20.598Z,0.10
2023-03-25T00:40:22.137Z,0.00
2023-03-25T00:45:23.815Z,0.10
2023-03-25T00:50:26.252Z,0.20
2023-03-25T00:55:27.715Z,0.10
2023-03-25T01:00:29.230Z,0.20
2023-03-25T01:05:30.776Z,0.10
2023-03-25T01:10:32.294Z,0.10
2023-03-25T01:15:33.822Z,0.15
2023-03-25T01:20:35.352Z,0.10
2023-03-25T01:25:37.358Z,0.10
2023-03-25T01:30:38.871Z,0.15
2023-03-25T01:35:41.030Z,0.10
2023-03-25T01:40:45.664Z,0.10
2023-03-25T01:45:47.458Z,0.30
2023-03-25T01:50:57.470Z,0.10
2023-03-25T01:56:03.513Z,0.10
2023-03-25T02:01:05.365Z,0.25
2023-03-25T02:06:12.148Z,0.30
2023-03-25T02:11:13.644Z,0.30
2023-03-25T02:16:15.519Z,0.30
2023-03-25T02:21:37.267Z,0.50
2023-03-25T02:26:56.458Z,0.60
2023-03-25T02:32:01.157Z,0.40
2023-03-25T02:37:21.665Z,0.20
2023-03-25T02:42:25.935Z,0.43
2023-03-25T02:47:31.378Z,0.60
2023-03-25T02:52:39.876Z,0.35
2023-03-25T02:57:42.908Z,0.55
2023-03-25T03:02:46.739Z,0.25
2023-03-25T03:07:50.807Z,0.50
2023-03-25T03:12:58.120Z,0.55
2023-03-25T03:18:08.971Z,0.77
2023-03-25T03:23:24.479Z,1.00
2023-03-25T03:28:30.792Z,0.50
2023-03-25T03:33:35.447Z,0.60
2023-03-25T03:38:40.053Z,0.38
2023-03-25T03:43:56.809Z,0.60
2023-03-25T03:48:59.064Z,0.43
2023-03-25T03:54:04.719Z,0.50
2023-03-25T03:59:12.843Z,0.32
2023-03-25T04:04:18.542Z,0.63
2023-03-25T04:09:27.604Z,0.57
2023-03-25T04:14:29.163Z,0.68
2023-03-25T04:19:34.223Z,0.60
2023-03-25T04:24:37.898Z,0.63
2023-03-25T04:29:40.791Z,0.65
2023-03-25T04:34:42.345Z,0.77
2023-03-25T04:39:43.795Z,0.90
2023-03-25T04:44:45.309Z,0.90
2023-03-25T04:49:48.108Z,0.60
2023-03-25T04:54:49.687Z,0.57
2023-03-25T04:59:51.164Z,0.77
2023-03-25T05:04:54.024Z,0.55
2023-03-25T05:09:57.208Z,0.90
2023-03-25T05:14:58.684Z,0.73
2023-03-25T05:20:00.181Z,1.08
2023-03-25T05:25:02.386Z,0.70
2023-03-25T05:30:04.451Z,0.85
2023-03-25T05:35:06.199Z,0.90
2023-03-25T05:40:15.240Z,0.75
2023-03-25T05:45:17.161Z,0.83
2023-03-25T05:50:19.026Z,0.70
2023-03-25T05:55:21.731Z,0.93
2023-03-25T06:00:23.613Z,1.20
2023-03-25T06:05:26.051Z,1.00
2023-03-25T06:10:27.879Z,1.27
2023-03-25T06:15:33.585Z,0.93
2023-03-25T06:20:35.338Z,1.30
2023-03-25T06:25:36.839Z,1.00
2023-03-25T06:30:38.342Z,0.95
2023-03-25T06:35:41.593Z,0.80
2023-03-25T06:40:43.216Z,0.90
2023-03-25T06:45:44.726Z,0.80
2023-03-25T06:50:46.326Z,0.70
2023-03-25T06:55:48.068Z,0.80
2023-03-25T07:00:55.988Z,0.68
2023-03-25T07:05:57.482Z,1.10
2023-03-25T07:11:07.381Z,1.10
2023-03-25T07:16:09.507Z,1.20
2023-03-25T07:21:11.071Z,0.90
2023-03-25T07:26:13.508Z,0.90
2023-03-25T07:31:16.420Z,1.10
2023-03-25T07:36:18.344Z,1.17
2023-03-25T07:41:19.902Z,1.23
2023-03-25T07:46:21.912Z,0.85
2023-03-25T07:51:23.564Z,1.17
2023-03-25T07:56:25.298Z,1.60
2023-03-25T08:01:26.840Z,0.80
2023-03-25T08:06:28.408Z,1.20
2023-03-25T08:11:29.994Z,0.90
2023-03-25T08:16:31.605Z,1.05
2023-03-25T08:21:33.139Z,1.10
2023-03-25T08:26:35.116Z,0.98
2023-03-25T08:31:38.731Z,1.25
2023-03-25T08:36:40.382Z,1.08
2023-03-25T08:41:41.875Z,0.90
2023-03-25T08:46:43.502Z,1.15
2023-03-25T08:51:45.431Z,1.25
2023-03-25T08:56:46.929Z,1.15
2023-03-25T09:01:48.558Z,1.40
2023-03-25T09:07:11.826Z,0.95
2023-03-25T09:12:11.556Z,1.10
2023-03-25T09:17:13.089Z,0.88
2023-03-25T09:22:14.860Z,0.88
2023-03-25T09:27:16.483Z,0.82
2023-03-25T09:32:18.830Z,1.25
2023-03-25T09:37:20.519Z,0.63
2023-03-25T09:42:37.559Z,0.68
2023-03-25T09:47:41.494Z,0.70
2023-03-25T09:53:09.507Z,0.68
2023-03-25T09:58:31.323Z,0.70
2023-03-25T10:03:44.415Z,0.47
2023-03-25T10:08:46.130Z,0.70
2023-03-25T10:13:51.309Z,0.73
2023-03-25T10:19:14.919Z,0.70
2023-03-25T10:24:19.327Z,0.65
2023-03-25T10:29:22.262Z,0.80
2023-03-25T10:34:29.718Z,0.88
2023-03-25T10:39:37.450Z,0.60
2023-03-25T10:44:39.160Z,0.60
2023-03-25T10:49:41.884Z,0.55
2023-03-25T10:54:48.431Z,0.55
2023-03-25T10:59:55.683Z,0.57
2023-03-25T11:05:00.093Z,0.45
2023-03-25T11:10:11.551Z,0.40
2023-03-25T11:15:18.470Z,0.60
2023-03-25T11:20:26.684Z,0.52
2023-03-25T11:25:32.997Z,0.43
2023-03-25T11:30:34.522Z,0.77
2023-03-25T11:35:43.365Z,0.70
2023-03-25T11:40:55.139Z,0.55
2023-03-25T11:45:56.707Z,0.65
2023-03-25T11:51:03.159Z,0.60
2023-03-25T11:56:06.842Z,0.75
2023-03-25T12:01:20.316Z,0.40
2023-03-25T12:06:22.605Z,0.43
2023-03-25T12:11:28.321Z,0.70
2023-03-25T12:16:32.679Z,0.50
2023-03-25T12:21:53.818Z,0.38
2023-03-25T12:27:07.545Z,0.60
2023-03-25T12:32:15.126Z,0.47
2023-03-25T12:37:26.411Z,0.82
2023-03-25T12:42:33.459Z,0.60
2023-03-25T12:47:50.660Z,0.52
2023-03-25T12:52:56.805Z,0.60
2023-03-25T12:57:58.301Z,0.55
2023-03-25T13:03:18.656Z,0.98
2023-03-25T13:08:23.508Z,0.95
2023-03-25T13:13:25.882Z,0.73
2023-03-25T13:18:42.803Z,0.75
2023-03-25T13:23:49.182Z,0.88
2023-03-25T13:29:14.010Z,0.90
2023-03-25T13:34:30.840Z,0.95
2023-03-25T13:39:55.748Z,0.95
2023-03-25T13:44:58.556Z,0.65
2023-03-25T13:50:00.253Z,0.63
2023-03-25T13:55:08.878Z,0.73
2023-03-25T14:00:14.689Z,0.70
2023-03-25T14:05:22.165Z,0.45
2023-03-25T14:10:23.726Z,0.75
2023-03-25T14:15:51.846Z,0.40
2023-03-25T14:20:53.965Z,0.80
2023-03-25T14:25:57.988Z,0.70
2023-03-25T14:31:23.019Z,0.85
2023-03-25T14:36:32.149Z,1.13
2023-03-25T14:41:52.327Z,0.80
2023-03-25T14:47:25.806Z,1.30
2023-03-25T14:52:32.349Z,1.40
2023-03-25T14:57:39.827Z,1.08
2023-03-25T15:02:42.949Z,1.05
2023-03-25T15:07:59.124Z,0.85
2023-03-25T15:13:04.641Z,1.33
2023-03-25T15:18:06.591Z,0.98
2023-03-25T15:23:20.068Z,1.42
2023-03-25T15:28:21.648Z,1.33
2023-03-25T15:33:40.203Z,1.25
2023-03-25T15:38:57.960Z,1.20
2023-03-25T15:44:00.799Z,1.00
2023-03-25T15:49:21.916Z,1.20
2023-03-25T15:59:40.110Z,1.00
2023-03-25T16:04:47.221Z,1.05
2023-03-25T16:09:48.945Z,1.20
2023-03-25T16:14:51.625Z,1.20
2023-03-25T16:19:54.457Z,1.20
2023-03-25T16:24:57.340Z,0.80
2023-03-25T16:29:58.978Z,1.65
2023-03-25T16:35:00.937Z,1.15
2023-03-25T16:40:05.894Z,1.48
2023-03-25T16:45:09.201Z,1.17
2023-03-25T16:50:16.638Z,1.02
2023-03-25T16:55:31.949Z,1.10
2023-03-25T17:00:38.343Z,0.90
2023-03-25T17:05:50.430Z,0.82
2023-03-25T17:10:54.937Z,1.02
2023-03-25T17:15:56.639Z,0.68
2023-03-25T17:21:00.238Z,0.77
2023-03-25T17:26:03.987Z,1.00
2023-03-25T17:31:24.706Z,0.95
2023-03-25T17:36:26.689Z,0.80
2023-03-25T17:41:29.825Z,1.05
2023-03-25T17:46:31.998Z,1.02
2023-03-25T17:51:33.696Z,0.77
2023-03-25T17:56:38.526Z,0.60
2023-03-25T18:01:40.101Z,0.52
2023-03-25T18:06:41.728Z,0.93
2023-03-25T18:11:44.782Z,0.80
2023-03-25T18:16:46.571Z,0.93
2023-03-25T18:21:48.269Z,0.50
2023-03-25T18:26:49.873Z,0.77
2023-03-25T18:31:52.088Z,0.80
2023-03-25T18:36:54.071Z,0.50
2023-03-25T18:41:55.638Z,0.93
2023-03-25T18:46:57.357Z,0.40
2023-03-25T18:51:59.340Z,0.57
2023-03-25T18:57:00.960Z,0.63
2023-03-25T19:02:02.591Z,0.80
2023-03-25T19:07:04.754Z,0.40
2023-03-25T19:12:09.383Z,0.73
2023-03-25T19:17:10.984Z,0.70
2023-03-25T19:22:16.328Z,0.55
2023-03-25T19:27:17.984Z,0.63
2023-03-25T19:32:19.548Z,0.57
2023-03-25T19:37:21.075Z,0.47
2023-03-25T19:42:22.728Z,0.40
2023-03-25T19:47:24.495Z,0.22
2023-03-25T19:52:26.520Z,0.40
2023-03-25T19:57:28.020Z,0.60
2023-03-25T20:02:33.566Z,0.40
2023-03-25T20:07:35.159Z,0.43
2023-03-25T20:12:36.705Z,0.45
2023-03-25T20:17:38.632Z,0.43
2023-03-25T20:22:40.803Z,0.68
2023-03-25T20:27:42.771Z,0.38
2023-03-25T20:32:46.576Z,0.70
2023-03-25T20:37:49.769Z,0.38
2023-03-25T20:42:51.433Z,0.50
2023-03-25T20:47:53.388Z,0.70
2023-03-25T20:52:55.701Z,0.60
2023-03-25T20:57:57.223Z,0.60
2023-03-25T21:02:58.766Z,0.40
2023-03-25T21:08:00.611Z,0.50
2023-03-25T21:13:02.140Z,0.40
2023-03-25T21:18:04.145Z,0.40
2023-03-25T21:23:07.131Z,0.68
2023-03-25T21:28:08.811Z,0.30
2023-03-25T21:33:10.718Z,0.47
2023-03-25T21:38:12.281Z,0.45
2023-03-25T21:43:13.849Z,0.30
2023-03-25T21:48:17.639Z,0.30
2023-03-25T21:53:22.128Z,0.55
2023-03-25T21:58:27.460Z,0.40
2023-03-25T22:03:29.931Z,0.63
2023-03-25T22:08:31.632Z,0.60
2023-03-25T22:13:33.319Z,0.75
2023-03-25T22:18:35.554Z,0.47
2023-03-25T22:23:37.126Z,0.55
2023-03-25T22:28:39.411Z,0.60
2023-03-25T22:33:41.048Z,0.35
2023-03-25T22:38:44.549Z,0.68
2023-03-25T22:43:46.340Z,0.45
2023-03-25T22:48:48.291Z,0.45
2023-03-25T22:53:49.784Z,0.55
2023-03-25T22:58:54.344Z,0.50
2023-03-25T23:03:57.448Z,0.40
2023-03-25T23:08:59.241Z,0.35
2023-03-25T23:14:06.167Z,0.55
2023-03-25T23:19:09.974Z,0.50
2023-03-25T23:24:11.860Z,0.80
2023-03-25T23:29:13.394Z,0.52
2023-03-25T23:34:16.041Z,0.65
2023-03-25T23:39:22.745Z,0.52
2023-03-25T23:44:24.288Z,0.30
2023-03-25T23:49:25.882Z,0.40
2023-03-25T23:54:27.863Z,0.40
2023-03-25T23:59:29.324Z,0.50
